Time;durP1;ratioP1;P1;durP2;ratioP2;P2;SDS_P1;SDS_P2;PMS_P1;PMS_P2;Temp;Humidity;BMP_temperature;BMP_pressure;BME280_temperature;BME280_humidity;BME280_pressure;Samples;Min_cycle;Max_cycle;Signal;HPM_P1;HPM_P2
2022/03/12 00:00:08;;;;;;;;;;;-0.30;93.40;;;-1.37;51.53;95807.22;10564942;28;2301;-77
2022/03/12 00:05:12;;;;;;;;;;;-0.30;92.10;;;-1.35;51.21;95804.38;10549226;28;1824;-78
2022/03/12 00:10:14;;;;;;;;;;;-0.40;91.20;;;-1.40;50.99;95804.16;10568129;28;1917;-80
2022/03/12 00:15:19;;;;;;;;;;;-0.30;91.50;;;-1.48;50.62;95802.50;10555190;28;1844;-82
2022/03/12 00:20:23;;;;;;;;;;;-0.40;91.10;;;-1.45;51.08;95810.03;10569578;28;1944;-83
2022/03/12 00:25:27;;;;;;;;;;;-0.50;91.50;;;-1.49;51.13;95813.25;10573996;28;1982;-83
2022/03/12 00:30:30;;;;;;;;;;;-0.40;91.70;;;-1.57;50.84;95814.25;10589581;28;1665;-83
2022/03/12 00:35:33;;;;;;;;;;;-0.50;99.90;;;-1.65;50.92;95809.97;10562744;28;1733;-82
2022/03/12 00:40:37;;;;;;;;;;;-0.60;99.90;;;-1.70;52.41;95817.66;10551134;28;1989;-84
2022/03/12 00:45:41;;;;;;;;;;;-0.70;99.90;;;-1.71;51.53;95816.03;10551999;28;1758;-83
2022/03/12 00:50:44;;;;;;;;;;;-0.70;99.90;;;-1.77;51.06;95832.63;10546172;28;1866;-83
2022/03/12 00:55:47;;;;;;;;;;;-0.70;99.90;;;-1.84;51.62;95829.13;10550733;28;1835;-83
2022/03/12 01:00:50;;;;;;;;;;;-0.80;97.70;;;-1.85;51.75;95818.75;10539690;28;1929;-83
2022/03/12 01:05:54;;;;;;;;;;;-0.60;98.40;;;-1.85;51.95;95837.22;10565650;28;1864;-83
2022/03/12 01:10:57;;;;;;;;;;;-0.90;99.90;;;-1.86;52.40;95827.69;10547248;28;1847;-83
2022/03/12 01:16:01;;;;;;;;;;;-0.60;99.90;;;-1.89;52.06;95834.16;10553617;28;1683;-82
2022/03/12 01:21:04;;;;;;;;;;;-0.90;99.90;;;-1.91;52.79;95830.91;10561350;28;1990;-83
2022/03/12 01:26:07;;;;;;;;;;;-0.90;99.90;;;-1.92;51.95;95830.09;10560065;28;1867;-83
2022/03/12 01:31:11;;;;;;;;;;;-1.00;99.90;;;-1.92;52.65;95822.19;10562216;28;1899;-82
2022/03/12 01:36:14;;;;;;;;;;;-0.90;99.90;;;-1.98;52.99;95827.41;10559164;28;1809;-82
2022/03/12 01:41:17;;;;;;;;;;;-0.90;99.90;;;-2.00;53.63;95830.25;10531416;28;1957;-83
2022/03/12 01:46:20;;;;;;;;;;;-1.00;99.90;;;-1.98;52.53;95822.13;10535249;28;1697;-82
2022/03/12 01:51:23;;;;;;;;;;;-0.90;99.90;;;-2.11;53.96;95824.69;10546382;28;1788;-83
2022/03/12 01:56:27;;;;;;;;;;;-1.10;99.90;;;-2.14;52.76;95825.91;10555294;28;1890;-83
2022/03/12 02:01:30;;;;;;;;;;;-1.30;99.90;;;-2.12;53.80;95817.81;10556564;28;2185;-83
2022/03/12 02:06:33;;;;;;;;;;;-1.10;99.90;;;-2.17;53.62;95819.19;10567881;28;1829;-82
2022/03/12 02:11:39;;;;;;;;;;;-1.10;99.90;;;-2.11;53.72;95819.44;10558739;28;1951;-83
2022/03/12 02:16:43;;;;;;;;;;;-1.10;99.90;;;-2.15;53.58;95812.94;10565138;28;1898;-83
2022/03/12 02:21:50;;;;;;;;;;;-1.10;99.90;;;-2.20;53.91;95814.31;10550189;28;1864;-82
2022/03/12 02:26:54;;;;;;;;;;;-1.20;99.90;;;-2.25;54.33;95814.09;10551415;28;1898;-83
2022/03/12 02:32:03;;;;;;;;;;;-1.20;99.90;;;-2.28;54.48;95817.13;10562596;28;1877;-83
2022/03/12 02:37:06;;;;;;;;;;;-0.80;99.90;;;-2.31;55.19;95824.56;10569511;28;1952;-82
2022/03/12 02:42:10;;;;;;;;;;;-1.30;99.90;;;-2.30;55.69;95831.47;10557050;28;1781;-81
2022/03/12 02:47:14;;;;;;;;;;;-1.20;99.90;;;-2.26;55.51;95832.72;10558334;28;1809;-82
2022/03/12 02:52:18;;;;;;;;;;;-1.20;99.90;;;-2.23;55.65;95827.06;10560998;28;1948;-84
2022/03/12 02:57:26;;;;;;;;;;;-1.20;99.90;;;-2.12;53.99;95828.34;10550638;28;2006;-83
2022/03/12 03:02:38;;;;;;;;;;;-1.10;99.90;;;-2.18;54.60;95838.63;10553871;28;2058;-81
2022/03/12 03:07:45;;;;;;;;;;;-1.00;99.90;;;-2.08;54.26;95840.94;10572088;28;2447;-83
2022/03/12 03:12:48;;;;;;;;;;;-1.10;99.90;;;-2.13;54.08;95834.63;10580511;28;2327;-83
2022/03/12 03:17:51;;;;;;;;;;;-1.20;99.90;;;-2.13;54.10;95835.44;10580384;28;1993;-81
2022/03/12 03:22:54;;;;;;;;;;;-1.10;99.90;;;-2.10;54.69;95845.59;10565565;28;1925;-82
2022/03/12 03:27:57;;;;;;;;;;;-1.10;99.90;;;-2.12;54.99;95833.63;10566367;28;1953;-81
2022/03/12 03:33:00;;;;;;;;;;;-1.10;99.90;;;-2.21;55.42;95839.03;10561875;28;2166;-82
2022/03/12 03:38:03;;;;;;;;;;;-1.20;99.90;;;-2.23;55.18;95842.84;10564500;28;2089;-84
2022/03/12 03:43:07;;;;;;;;;;;-1.10;99.90;;;-2.27;55.41;95850.34;10573796;28;2009;-83
2022/03/12 03:48:10;;;;;;;;;;;-1.20;99.90;;;-2.22;54.74;95855.84;10576362;28;1749;-83
2022/03/12 03:53:14;;;;;;;;;;;-1.30;99.90;;;-2.31;55.41;95856.16;10589353;27;1997;-82
2022/03/12 03:58:17;;;;;;;;;;;-1.30;99.90;;;-2.30;55.44;95845.44;10586967;27;1886;-81
2022/03/12 04:03:21;;;;;;;;;;;;;;;-2.35;55.91;95847.84;10573980;27;1895;-80
2022/03/12 04:08:25;;;;;;;;;;;;;;;-2.29;56.39;95847.09;10592109;28;1901;-82
2022/03/12 04:13:28;;;;;;;;;;;;;;;-2.24;56.75;95841.22;10577575;27;1371;-83
2022/03/12 04:18:33;;;;;;;;;;;;;;;-2.26;57.10;95838.78;10580924;27;1963;-82
2022/03/12 04:23:36;;;;;;;;;;;;;;;-2.28;56.83;95840.81;10587436;27;1882;-81
2022/03/12 04:28:40;;;;;;;;;;;;;;;-2.30;57.17;95842.81;10590054;27;2212;-83
2022/03/12 04:33:43;;;;;;;;;;;;;;;-2.30;56.52;95842.81;10575926;27;2043;-80
2022/03/12 04:38:49;;;;;;;;;;;;;;;-2.30;56.44;95842.81;10559706;28;1979;-81
2022/03/12 04:43:52;;;;;;;;;;;;;;;-2.34;56.81;95846.84;10563369;28;2389;-82
2022/03/12 04:48:56;;;;;;;;;;;;;;;-2.34;57.20;95846.03;10561879;28;1824;-81
2022/03/12 04:54:00;;;;;;;;;;;;;;;-2.32;57.26;95850.09;10579394;28;1768;-82
2022/03/12 04:59:04;;;;;;;;;;;-1.30;99.90;;;-2.33;56.74;95851.09;10573876;28;1945;-82
2022/03/12 05:04:08;;;;;;;;;;;-1.20;99.90;;;-2.28;56.75;95861.88;10562381;28;1909;-82
2022/03/12 05:09:11;;;;;;;;;;;-1.30;99.90;;;-2.30;56.39;95861.22;10550582;28;2119;-82
2022/03/12 05:14:17;;;;;;;;;;;-1.30;99.90;;;-2.33;56.74;95872.16;10570256;28;1578;-81
2022/03/12 05:19:21;;;;;;;;;;;-1.30;99.90;;;-2.35;56.10;95863.66;10563666;28;1951;-82
2022/03/12 05:24:24;;;;;;;;;;;-1.30;99.90;;;-2.37;57.06;95873.53;10581524;28;1881;-81
2022/03/12 05:29:27;;;;;;;;;;;-1.40;99.90;;;-2.35;56.79;95876.81;10581410;28;1865;-81
2022/03/12 05:34:30;;;;;;;;;;;-1.40;99.90;;;-2.30;57.39;95879.66;10566702;28;1796;-82
2022/03/12 05:39:34;;;;;;;;;;;-1.40;99.90;;;-2.36;57.08;95880.44;10572827;28;1907;-81
2022/03/12 05:44:38;;;;;;;;;;;-1.30;99.90;;;-2.33;57.15;95887.16;10554735;28;1882;-82
2022/03/12 05:49:42;;;;;;;;;;;-1.30;99.90;;;-2.24;57.76;95891.25;10574232;28;1924;-80
2022/03/12 05:54:49;;;;;;;;;;;-1.30;99.90;;;-2.08;56.80;95898.88;10564737;28;2104;-82
2022/03/12 05:59:52;;;;;;;;;;;-1.20;99.90;;;-2.04;56.59;95905.38;10569418;28;1977;-82
2022/03/12 06:05:00;;;;;;;;;;;-1.10;99.90;;;-1.96;56.89;95915.81;10554538;28;1925;-82
2022/03/12 06:10:05;;;;;;;;;;;-1.10;99.90;;;-1.88;56.48;95912.19;10532161;28;1985;-83
2022/03/12 06:15:09;;;;;;;;;;;-1.00;99.90;;;-1.84;56.19;95910.00;10524613;28;2052;-81
2022/03/12 06:20:12;;;;;;;;;;;-0.90;99.90;;;-1.70;55.65;95916.97;10537908;28;2236;-83
2022/03/12 06:25:16;;;;;;;;;;;-0.80;99.90;;;-1.57;55.39;95924.16;10540461;28;2040;-81
2022/03/12 06:30:20;;;;;;;;;;;-0.80;99.90;;;-1.61;55.25;95925.53;10543996;28;1813;-82
2022/03/12 06:35:24;;;;;;;;;;;-0.70;99.90;;;-1.43;55.63;95928.50;10541536;28;2005;-81
2022/03/12 06:40:28;;;;;;;;;;;-0.60;99.90;;;-1.21;55.23;95935.31;10550379;28;2139;-80
2022/03/12 06:45:32;;;;;;;;;;;-0.40;99.70;;;-0.97;53.72;95931.31;10554979;28;2065;-82
2022/03/12 06:50:37;;;;;;;;;;;-0.20;99.30;;;-0.81;53.24;95932.81;10545756;28;2000;-82
2022/03/12 06:55:41;;;;;;;;;;;0.30;98.80;;;-0.56;53.15;95931.25;10544481;27;1914;-81
2022/03/12 07:00:44;;;;;;;;;;;0.20;98.40;;;-0.36;53.41;95935.75;10552433;28;2024;-82
2022/03/12 07:05:48;;;;;;;;;;;0.40;97.70;;;-0.21;52.40;95932.91;10541880;28;1866;-82
2022/03/12 07:10:51;;;;;;;;;;;0.60;97.70;;;-0.22;53.87;95947.97;10559978;28;1972;-83
2022/03/12 07:15:56;;;;;;;;;;;0.70;97.90;;;0.00;52.38;95953.88;10559475;28;1969;-83
2022/03/12 07:21:00;;;;;;;;;;;0.80;97.30;;;0.08;54.05;95948.38;10545885;28;1985;-82
2022/03/12 07:26:03;;;;;;;;;;;0.90;98.20;;;0.25;52.25;95948.78;10580977;28;2045;-83
2022/03/12 07:31:07;;;;;;;;;;;1.00;96.70;;;0.29;51.63;95942.06;10553460;28;2084;-82
2022/03/12 07:36:10;;;;;;;;;;;1.10;97.40;;;0.21;52.18;95943.09;10550280;28;2079;-81
2022/03/12 07:41:13;;;;;;;;;;;1.10;97.30;;;0.29;52.31;95947.34;10534057;28;1913;-81
2022/03/12 07:46:16;;;;;;;;;;;1.10;97.30;;;0.47;52.00;95947.53;10550359;28;2266;-81
2022/03/12 07:51:19;;;;;;;;;;;1.10;97.30;;;0.72;51.58;95944.25;10526620;28;1878;-81
2022/03/12 07:56:22;;;;;;;;;;;1.40;97.00;;;1.12;51.00;95944.91;10510457;28;1922;-82
2022/03/12 08:01:27;;;;;;;;;;;1.70;97.50;;;1.35;50.57;95944.41;10540660;28;1898;-82
2022/03/12 08:06:30;;;;;;;;;;;2.00;96.20;;;1.73;49.52;95944.41;10543244;28;1811;-79
2022/03/12 08:11:34;;;;;;;;;;;2.30;93.10;;;1.88;49.70;95944.09;10539500;28;1861;-80
2022/03/12 08:16:37;;;;;;;;;;;2.50;92.80;;;2.12;48.87;95948.59;10526159;28;1826;-76
2022/03/12 08:21:41;;;;;;;;;;;2.70;92.40;;;2.40;48.31;95942.03;10540088;28;1954;-79
2022/03/12 08:26:46;;;;;;;;;;;3.00;92.10;;;2.85;47.64;95939.94;10549297;28;1933;-79
2022/03/12 08:32:08;;;;;;;;;;;3.30;91.60;;;2.65;47.76;95937.50;10537264;28;1908;-78
2022/03/12 08:48:42;;;;;;;;;;;4.10;90.40;;;3.73;45.63;95931.50;10518521;28;2312;-82
2022/03/12 08:53:47;;;;;;;;;;;;;;;3.86;45.34;95940.31;10531671;28;1911;-81
2022/03/12 08:58:50;;;;;;;;;;;;;;;4.17;44.64;95942.69;10540858;28;1931;-81
2022/03/12 09:03:54;;;;;;;;;;;;;;;4.04;45.28;95938.41;10556604;28;1862;-82
2022/03/12 09:08:58;;;;;;;;;;;4.70;98.50;;;4.12;44.50;95939.91;10551625;28;2022;-80
2022/03/12 09:14:01;;;;;;;;;;;4.90;99.90;;;4.29;44.17;95937.41;10532027;28;1958;-83
2022/03/12 09:19:03;;;;;;;;;;;4.70;99.90;;;4.48;43.48;95938.09;10542841;28;1997;-82
2022/03/12 09:24:06;;;;;;;;;;;5.00;99.90;;;4.75;43.47;95933.94;10539528;28;2035;-81
2022/03/12 09:29:10;;;;;;;;;;;5.40;88.10;;;4.96;42.89;95934.38;10529196;28;1939;-78
2022/03/12 09:34:12;;;;;;;;;;;5.50;87.70;;;4.78;43.19;95933.47;10544582;28;2038;-81
2022/03/12 09:39:16;;;;;;;;;;;5.60;96.20;;;4.93;43.19;95932.19;10525147;28;2368;-81
2022/03/12 09:44:18;;;;;;;;;;;6.10;87.70;;;5.24;43.24;95929.09;10530584;28;1983;-81
2022/03/12 09:49:21;;;;;;;;;;;5.90;87.60;;;4.93;43.49;95930.31;10519611;28;1898;-81
2022/03/12 09:54:24;;;;;;;;;;;6.00;87.10;;;5.26;43.36;95932.34;10540844;28;2337;-82
2022/03/12 09:59:27;;;;;;;;;;;6.20;87.70;;;5.29;43.13;95929.22;10534334;28;1996;-81
2022/03/12 10:04:30;;;;;;;;;;;6.20;87.50;;;5.40;43.26;95931.00;10495473;28;2887;-82
2022/03/12 10:09:34;;;;;;;;;;;6.30;87.20;;;5.28;43.66;95921.44;10534662;28;2170;-81
2022/03/12 10:14:36;;;;;;;;;;;6.40;87.00;;;5.46;43.46;95920.44;10537203;28;1982;-80
2022/03/12 10:19:39;;;;;;;;;;;6.50;87.40;;;5.51;43.60;95916.03;10530197;28;1926;-81
2022/03/12 10:24:43;;;;;;;;;;;6.50;87.50;;;5.88;43.24;95905.78;10543455;28;1951;-76
2022/03/12 10:29:46;;;;;;;;;;;6.60;87.60;;;6.08;43.19;95912.53;10527937;28;2021;-77
2022/03/12 10:34:52;;;;;;;;;;;6.90;87.70;;;5.86;43.19;95918.56;10512961;28;2241;-79
2022/03/12 10:39:56;;;;;;;;;;;6.90;87.20;;;5.99;43.47;95914.81;10530717;28;1914;-79
2022/03/12 10:44:59;;;;;;;;;;;7.00;87.30;;;5.99;43.29;95911.31;10511952;28;1932;-76
2022/03/12 10:50:02;;;;;;;;;;;;;;;6.29;42.83;95901.13;10522682;28;2079;-76
2022/03/12 10:55:05;;;;;;;;;;;7.20;87.30;;;6.57;42.54;95896.75;10530887;28;1829;-79
2022/03/12 11:00:07;;;;;;;;;;;7.20;87.40;;;6.66;42.26;95905.97;10512894;28;1890;-77
2022/03/12 11:05:11;;;;;;;;;;;7.60;99.90;;;6.47;41.93;95892.88;10520596;28;1990;-76
2022/03/12 11:10:15;;;;;;;;;;;7.40;89.10;;;6.68;41.95;95898.50;10528775;28;1829;-77
2022/03/12 11:15:18;;;;;;;;;;;8.40;99.90;;;6.98;41.59;95898.91;10509542;28;1909;-77
2022/03/12 11:20:23;;;;;;;;;;;7.70;94.30;;;7.13;41.52;95902.88;10535453;28;1976;-78
2022/03/12 11:25:26;;;;;;;;;;;7.90;93.50;;;7.10;42.25;95895.31;10533017;28;1989;-78
2022/03/12 11:30:28;;;;;;;;;;;7.90;92.70;;;7.39;40.65;95879.91;10535245;28;1883;-77
2022/03/12 11:35:31;;;;;;;;;;;8.60;97.90;;;7.61;40.00;95874.50;10544184;28;2017;-80
2022/03/12 11:40:34;;;;;;;;;;;8.40;98.30;;;7.69;39.91;95872.19;10536469;28;1883;-79
2022/03/12 11:45:37;;;;;;;;;;;8.40;85.60;;;7.81;40.52;95864.00;10538728;28;1949;-81
2022/03/12 11:50:40;;;;;;;;;;;8.50;94.30;;;7.88;39.84;95858.44;10562045;28;2182;-83
2022/03/12 11:55:43;;;;;;;;;;;8.70;94.20;;;8.05;40.13;95843.88;10551369;28;1817;-82
2022/03/12 12:00:46;;;;;;;;;;;8.80;85.00;;;8.16;39.76;95843.97;10539734;28;2000;-83
2022/03/12 12:05:49;;;;;;;;;;;8.80;86.90;;;8.13;39.82;95829.19;10546020;28;1996;-83
2022/03/12 12:10:54;;;;;;;;;;;9.10;84.50;;;8.36;39.11;95812.81;10550154;28;1903;-82
2022/03/12 12:15:59;;;;;;;;;;;;;;;8.66;39.04;95817.53;10554526;28;1894;-83
2022/03/12 12:21:02;;;;;;;;;;;;;;;8.62;38.34;95800.34;10534896;28;1973;-83
2022/03/12 12:26:05;;;;;;;;;;;9.60;97.70;;;8.92;38.49;95788.16;10545137;28;1879;-83
2022/03/12 12:31:08;;;;;;;;;;;9.60;99.90;;;9.00;38.26;95784.16;10545668;28;1875;-84
2022/03/12 12:36:11;;;;;;;;;;;9.80;85.40;;;9.05;37.58;95774.28;10528957;28;1797;-83
2022/03/12 12:41:14;;;;;;;;;;;9.80;91.90;;;9.29;37.68;95761.19;10552223;28;1886;-82
2022/03/12 12:46:17;;;;;;;;;;;10.20;82.80;;;9.40;37.04;95757.44;10574587;28;1791;-82
2022/03/12 12:51:21;;;;;;;;;;;10.30;93.90;;;9.59;36.77;95759.59;10561568;28;1971;-81
2022/03/12 12:56:24;;;;;;;;;;;10.40;91.90;;;9.51;36.83;95763.63;10572572;28;2050;-82
2022/03/12 13:01:34;;;;;;;;;;;10.40;95.60;;;9.63;36.81;95758.81;10548426;28;1906;-83
2022/03/12 13:06:40;;;;;;;;;;;10.40;94.30;;;9.74;36.35;95752.38;10524394;28;2036;-82
2022/03/12 13:11:44;;;;;;;;;;;10.60;99.90;;;9.90;36.02;95755.84;10546774;28;1622;-82
2022/03/12 13:16:47;;;;;;;;;;;11.00;99.90;;;9.92;36.44;95742.16;10546101;28;1961;-79
2022/03/12 13:21:50;;;;;;;;;;;10.70;99.90;;;9.93;36.19;95733.06;10562775;28;1906;-82
2022/03/12 13:26:54;;;;;;;;;;;;;;;10.08;35.82;95724.97;10537544;28;1716;-82
2022/03/12 13:31:58;;;;;;;;;;;;;;;10.09;36.08;95720.41;10535200;28;1949;-82
2022/03/12 13:37:04;;;;;;;;;;;;;;;10.34;35.63;95717.69;10520662;28;1854;-82
2022/03/12 13:42:08;;;;;;;;;;;11.20;80.90;;;10.23;35.72;95705.34;10515925;28;1914;-82
2022/03/12 13:47:11;;;;;;;;;;;11.00;99.90;;;10.38;35.34;95699.13;10523402;28;1829;-82
2022/03/12 13:52:15;;;;;;;;;;;11.10;95.50;;;10.57;35.26;95697.47;10538224;28;1813;-83
2022/03/12 13:57:20;;;;;;;;;;;11.20;94.90;;;10.57;34.96;95691.28;10531202;28;1700;-82
2022/03/12 14:02:23;;;;;;;;;;;11.30;87.50;;;10.37;34.54;95684.06;10537897;28;1921;-80
2022/03/12 14:07:27;;;;;;;;;;;11.30;85.60;;;10.49;34.48;95688.06;10533958;28;1858;-81
2022/03/12 14:12:30;;;;;;;;;;;11.20;86.10;;;10.48;34.11;95691.03;10532783;28;1819;-79
2022/03/12 14:17:33;;;;;;;;;;;11.40;85.70;;;10.50;34.49;95683.50;10555186;28;1773;-82
2022/03/12 14:22:37;;;;;;;;;;;11.30;86.10;;;10.38;34.07;95686.50;10525262;28;1954;-81
2022/03/12 14:27:41;;;;;;;;;;;11.30;85.10;;;10.25;34.09;95689.78;10549278;28;1787;-81
2022/03/12 14:32:45;;;;;;;;;;;11.10;85.00;;;10.27;33.89;95680.34;10551664;28;1760;-83
2022/03/12 14:37:48;;;;;;;;;;;11.10;85.30;;;10.14;33.96;95686.28;10551133;28;1764;-81
2022/03/12 14:42:53;;;;;;;;;;;11.00;84.60;;;10.10;33.69;95681.72;10547897;28;1967;-83
2022/03/12 14:47:57;;;;;;;;;;;10.90;84.70;;;10.10;33.54;95679.81;10546892;28;1826;-81
2022/03/12 14:53:00;;;;;;;;;;;11.00;84.50;;;10.14;33.52;95667.47;10533855;28;1906;-82
2022/03/12 14:58:03;;;;;;;;;;;11.00;84.40;;;10.08;32.84;95671.25;10551627;28;2280;-82
2022/03/12 15:03:07;;;;;;;;;;;10.70;83.60;;;10.06;32.80;95669.94;10526999;28;1891;-80
2022/03/12 15:08:11;;;;;;;;;;;10.90;83.50;;;10.07;32.65;95668.84;10546630;28;1885;-81
2022/03/12 15:13:15;;;;;;;;;;;10.90;83.20;;;10.04;32.67;95659.44;10533637;28;1829;-82
2022/03/12 15:18:18;;;;;;;;;;;10.80;83.00;;;10.08;32.61;95665.06;10537245;28;1788;-80
2022/03/12 15:23:21;;;;;;;;;;;10.90;82.90;;;10.01;31.84;95676.91;10540797;28;1910;-81
2022/03/12 15:28:24;;;;;;;;;;;11.00;82.00;;;9.86;31.67;95679.63;10557376;28;1584;-81
2022/03/12 15:33:28;;;;;;;;;;;10.80;81.40;;;9.82;32.32;95661.66;10548623;28;1820;-79
2022/03/12 15:38:31;;;;;;;;;;;10.70;81.70;;;9.79;31.90;95664.84;10567910;28;1786;-82
2022/03/12 15:43:35;;;;;;;;;;;10.70;81.60;;;9.80;31.63;95682.56;10535607;28;1910;-81
2022/03/12 15:48:39;;;;;;;;;;;10.60;80.80;;;9.70;31.33;95659.25;10527143;28;1798;-82
2022/03/12 15:53:42;;;;;;;;;;;10.60;80.80;;;9.69;31.67;95652.25;10530246;28;2132;-81
2022/03/12 15:58:45;;;;;;;;;;;10.60;81.00;;;9.61;32.13;95652.81;10524757;28;1870;-81
2022/03/12 16:03:50;;;;;;;;;;;10.50;81.30;;;9.66;32.52;95650.91;10515843;28;1913;-81
2022/03/12 16:08:57;;;;;;;;;;;10.50;81.40;;;9.60;31.90;95643.94;10539967;28;1917;-81
2022/03/12 16:14:01;;;;;;;;;;;10.50;81.40;;;9.58;31.69;95645.28;10541614;28;1743;-81
2022/03/12 16:19:04;;;;;;;;;;;10.50;80.70;;;9.53;31.78;95637.25;10548629;28;2417;-83
2022/03/12 16:24:10;;;;;;;;;;;10.40;80.50;;;9.43;31.11;95635.38;10533200;28;1974;-80
2022/03/12 16:29:14;;;;;;;;;;;10.30;80.00;;;9.38;30.71;95632.69;10526324;28;1870;-81
2022/03/12 16:34:18;;;;;;;;;;;10.30;79.70;;;9.27;29.84;95639.94;10519551;28;1771;-81
2022/03/12 16:39:22;;;;;;;;;;;10.10;78.50;;;9.09;29.52;95638.59;10531048;28;1900;-82
2022/03/12 16:44:25;;;;;;;;;;;10.10;77.70;;;8.90;28.70;95637.50;10536835;28;1941;-82
2022/03/12 16:49:29;;;;;;;;;;;9.80;76.90;;;8.67;29.68;95633.44;10537578;28;1797;-81
2022/03/12 16:54:33;;;;;;;;;;;9.70;77.20;;;8.60;29.35;95636.38;10533249;28;1784;-81
2022/03/12 16:59:36;;;;;;;;;;;9.60;76.50;;;8.39;27.97;95635.47;10543143;28;1886;-81
2022/03/12 17:04:41;;;;;;;;;;;9.40;75.10;;;8.22;27.95;95634.06;10543258;28;1890;-82
2022/03/12 17:09:44;;;;;;;;;;;9.20;74.40;;;8.18;27.17;95631.09;10524847;28;1870;-83
2022/03/12 17:14:49;;;;;;;;;;;9.20;74.00;;;7.99;27.62;95636.09;10521932;28;1780;-81
2022/03/12 17:19:52;;;;;;;;;;;9.10;73.80;;;7.90;27.84;95632.31;10550782;28;1849;-82
2022/03/12 17:24:56;;;;;;;;;;;8.90;73.70;;;7.69;26.97;95630.56;10576783;28;2000;-83
2022/03/12 17:30:00;;;;;;;;;;;8.80;73.70;;;7.47;27.76;95631.53;10559389;28;1844;-80
2022/03/12 17:35:03;;;;;;;;;;;8.70;74.00;;;7.39;27.62;95620.50;10553437;28;1808;-80
2022/03/12 17:40:07;;;;;;;;;;;8.50;74.30;;;7.13;28.79;95628.34;10574805;28;1740;-81
2022/03/12 17:45:11;;;;;;;;;;;8.30;74.80;;;7.08;28.81;95622.13;10557821;28;1895;-81
2022/03/12 17:50:16;;;;;;;;;;;8.20;74.90;;;7.02;28.87;95632.78;10538366;28;1727;-81
2022/03/12 17:55:20;;;;;;;;;;;8.00;75.10;;;6.82;30.30;95631.81;10549788;28;1848;-80
2022/03/12 18:00:23;;;;;;;;;;;7.80;75.50;;;6.82;29.50;95626.44;10547964;28;1842;-81
2022/03/12 18:05:30;;;;;;;;;;;7.80;75.60;;;6.47;30.34;95625.81;10529088;28;1711;-80
2022/03/12 18:10:33;;;;;;;;;;;7.70;74.60;;;6.40;30.74;95627.09;10549115;28;1767;-81
2022/03/12 18:15:37;;;;;;;;;;;7.40;73.40;;;6.30;30.59;95624.28;10519922;28;1828;-81
2022/03/12 18:20:41;;;;;;;;;;;7.50;73.10;;;6.16;31.15;95635.34;10528067;28;1926;-82
2022/03/12 18:25:47;;;;;;;;;;;7.30;73.10;;;6.14;30.71;95628.66;10534747;28;1897;-81
2022/03/12 18:30:50;;;;;;;;;;;7.10;71.80;;;6.14;30.80;95642.00;10519244;28;1721;-81
2022/03/12 18:35:53;;;;;;;;;;;7.10;71.90;;;5.91;31.51;95633.19;10534179;28;1895;-82
2022/03/12 18:40:59;;;;;;;;;;;6.90;71.90;;;5.79;31.60;95629.81;10533600;28;1972;-81
2022/03/12 18:46:02;;;;;;;;;;;6.90;71.40;;;5.67;31.76;95621.91;10531638;28;1799;-83
2022/03/12 18:51:06;;;;;;;;;;;6.70;71.40;;;5.49;32.11;95616.84;10519316;28;1530;-81
2022/03/12 18:56:09;;;;;;;;;;;6.60;71.20;;;5.46;32.33;95621.88;10515127;28;1460;-80
2022/03/12 19:01:13;;;;;;;;;;;6.50;71.40;;;5.32;32.36;95618.72;10515006;28;1972;-81
2022/03/12 19:06:17;;;;;;;;;;;6.40;71.70;;;5.15;32.80;95618.72;10530435;28;1839;-81
2022/03/12 19:11:20;;;;;;;;;;;6.40;72.70;;;5.10;33.10;95624.00;10514905;28;1824;-82
2022/03/12 19:16:23;;;;;;;;;;;6.10;71.80;;;5.09;32.90;95627.69;10510129;28;1907;-82
2022/03/12 19:21:26;;;;;;;;;;;6.10;72.00;;;4.95;33.74;95624.56;10531666;28;1971;-82
2022/03/12 19:26:32;;;;;;;;;;;6.00;72.10;;;4.87;33.83;95632.94;10521809;28;1816;-81
2022/03/12 19:31:36;;;;;;;;;;;5.90;72.30;;;4.72;34.65;95627.38;10517807;28;1935;-80
2022/03/12 19:36:39;;;;;;;;;;;5.80;72.60;;;4.74;34.40;95623.41;10509216;28;2101;-81
2022/03/12 19:41:44;;;;;;;;;;;5.70;72.90;;;4.54;34.12;95620.41;10541482;28;1898;-80
2022/03/12 19:46:48;;;;;;;;;;;5.60;72.90;;;4.57;34.55;95617.25;10540370;28;1844;-81
2022/03/12 19:51:52;;;;;;;;;;;5.60;72.90;;;4.54;34.33;95607.91;10555709;28;1800;-82
2022/03/12 19:56:55;;;;;;;;;;;5.50;73.00;;;4.41;34.90;95615.38;10535430;28;1905;-82
2022/03/12 20:01:59;;;;;;;;;;;5.50;73.50;;;4.22;34.82;95623.53;10537121;28;1970;-81
2022/03/12 20:07:03;;;;;;;;;;;5.30;73.40;;;4.13;35.88;95611.63;10556006;28;1860;-78
2022/03/12 20:12:18;;;;;;;;;;;5.30;74.10;;;3.95;35.68;95617.16;10567984;28;1713;-80
2022/03/12 20:17:22;;;;;;;;;;;5.00;74.00;;;3.63;37.13;95619.41;10577631;28;1850;-81
2022/03/12 20:22:28;;;;;;;;;;;4.90;74.90;;;3.47;37.50;95611.09;10541846;28;1894;-82
2022/03/12 20:27:32;;;;;;;;;;;4.70;75.20;;;3.69;37.07;95616.63;10561649;28;2199;-85
2022/03/12 20:32:36;;;;;;;;;;;4.70;75.40;;;3.70;37.67;95606.81;10566534;28;1780;-85
2022/03/12 20:37:39;;;;;;;;;;;4.70;75.80;;;3.78;36.45;95601.94;10579240;28;2471;-85
2022/03/12 20:42:49;;;;;;;;;;;4.70;75.40;;;3.73;36.75;95604.47;10564380;28;1917;-87
2022/03/12 20:47:52;;;;;;;;;;;4.70;75.50;;;3.56;37.62;95608.88;10577227;27;1828;-88
2022/03/12 20:52:56;;;;;;;;;;;4.70;76.00;;;3.42;38.03;95610.19;10583443;27;1695;-87
2022/03/12 20:58:00;;;;;;;;;;;4.60;76.20;;;3.41;37.53;95608.56;10595174;27;1450;-85
2022/03/12 21:03:04;;;;;;;;;;;4.40;76.30;;;3.31;38.37;95608.34;10577978;28;1890;-86
2022/03/12 21:08:08;;;;;;;;;;;4.40;76.70;;;3.20;38.35;95605.47;10574042;28;1315;-87
2022/03/12 21:13:12;;;;;;;;;;;4.80;77.10;;;3.17;38.45;95607.75;10589538;28;1884;-85
2022/03/12 21:18:16;;;;;;;;;;;4.20;76.90;;;3.10;39.11;95609.72;10591810;28;1115;-87
2022/03/12 21:23:25;;;;;;;;;;;4.20;77.10;;;2.89;39.76;95614.56;10578893;28;1887;-86
2022/03/12 21:28:28;;;;;;;;;;;4.10;77.80;;;2.87;39.34;95605.22;10570719;27;1520;-85
2022/03/12 21:33:31;;;;;;;;;;;3.90;77.90;;;2.91;39.53;95606.38;10587932;27;1283;-85
2022/03/12 21:38:35;;;;;;;;;;;3.90;78.20;;;2.88;39.73;95609.50;10568315;28;1566;-86
2022/03/12 21:43:38;;;;;;;;;;;3.80;78.10;;;2.85;39.88;95609.94;10570692;28;1887;-85
2022/03/12 21:48:42;;;;;;;;;;;3.90;78.30;;;2.57;40.67;95603.44;10577183;28;1568;-86
2022/03/12 21:53:46;;;;;;;;;;;3.90;80.00;;;2.45;41.54;95602.59;10565825;28;1658;-83
2022/03/12 21:58:51;;;;;;;;;;;3.70;79.20;;;2.48;40.91;95610.09;10579804;28;1551;-83
2022/03/12 22:03:54;;;;;;;;;;;3.50;81.60;;;2.41;41.30;95610.19;10546750;28;1891;-83
2022/03/12 22:08:57;;;;;;;;;;;3.50;82.90;;;2.27;41.34;95603.44;10525448;28;1857;-82
2022/03/12 22:14:01;;;;;;;;;;;3.40;80.20;;;2.35;41.35;95611.09;10544546;28;1743;-84
2022/03/12 22:19:05;;;;;;;;;;;3.30;94.00;;;2.39;42.14;95600.84;10549373;28;1798;-84
2022/03/12 22:24:09;;;;;;;;;;;3.30;86.10;;;2.34;41.83;95598.84;10540929;28;1984;-85
2022/03/12 22:29:11;;;;;;;;;;;3.30;86.30;;;2.19;42.25;95597.66;10571427;28;1732;-83
2022/03/12 22:34:15;;;;;;;;;;;3.20;84.30;;;2.15;42.08;95597.28;10549976;28;1798;-82
2022/03/12 22:39:19;;;;;;;;;;;3.20;86.90;;;1.99;42.68;95596.09;10553474;28;2257;-81
2022/03/12 22:44:22;;;;;;;;;;;3.00;99.90;;;1.95;42.50;95589.59;10537392;28;1987;-82
2022/03/12 22:49:25;;;;;;;;;;;3.00;84.80;;;1.98;42.48;95591.81;10522052;28;1874;-82
2022/03/12 22:54:28;;;;;;;;;;;2.90;86.20;;;1.93;42.55;95586.38;10511047;28;1968;-82
2022/03/12 22:59:31;;;;;;;;;;;2.80;86.20;;;1.93;42.81;95590.88;10510048;28;1860;-82
2022/03/12 23:09:54;;;;;;;;;;;2.80;82.80;;;1.84;42.48;95575.25;10529933;28;1937;-83
2022/03/12 23:14:57;;;;;;;;;;;2.80;83.90;;;1.75;43.67;95587.22;10531078;28;1830;-81
2022/03/12 23:20:00;;;;;;;;;;;2.80;87.70;;;1.67;43.39;95574.28;10511449;28;1841;-82
2022/03/12 23:25:04;;;;;;;;;;;2.80;89.50;;;1.55;43.81;95579.50;10532285;28;1919;-82
2022/03/12 23:30:07;;;;;;;;;;;2.70;99.20;;;1.47;43.76;95586.94;10522420;28;1833;-82
2022/03/12 23:35:10;;;;;;;;;;;2.60;85.60;;;1.43;44.25;95581.25;10509916;28;1798;-83
2022/03/12 23:40:14;;;;;;;;;;;2.50;87.60;;;1.42;44.13;95579.66;10535876;28;1870;-82
2022/03/12 23:45:17;;;;;;;;;;;2.50;87.80;;;1.35;44.45;95584.22;10517247;28;1882;-83
2022/03/12 23:50:23;;;;;;;;;;;2.20;94.50;;;1.36;44.37;95580.53;10533584;28;1922;-83
2022/03/12 23:55:26;;;;;;;;;;;2.40;90.10;;;1.31;44.76;95581.19;10520301;28;1844;-83
